Kilsyth, United Kingdom
Current Conditions -  °F | °C
As of 6:20 AM on Saturday 20 Dec 2014 (Local Time) from EGPF Reporting Station
Broken Clouds Broken Clouds  
Wind Chill: 35°   Ceiling: 3600
Heat Index: 43°   Visibility: 6mi
Dew Point: 36°   Wind: 17mph
Humidity: 76%   Direction: 270°W
Pressure: 29.94"   Gusts: NA
Location:  55.98°N, 4.06°W
Report Text: EGPF 200620Z AUTO 27015KT 9999 BKN036/// //////TCU 06/02 Q1014
Loading
Personal Weather Stations






























Interactive Weather Map New forecast layout! Learn more

10-Day Weather Forecast

Advertisements
Track Severe Weather on mobile